Time;durP1;ratioP1;P1;durP2;ratioP2;P2;SDS_P1;SDS_P2;PMS_P1;PMS_P2;Temp;Humidity;BMP_temperature;BMP_pressure;BME280_temperature;BME280_humidity;BME280_pressure;Samples;Min_cycle;Max_cycle;Signal;HPM_P1;HPM_P2
2022/01/10 00:01:05;;;;;;;6.00;3.70;;;4.50;99.90;;;;;;5073799;28;20471;-62
2022/01/10 00:03:33;;;;;;;5.43;3.43;;;4.50;99.90;;;;;;5074058;28;20437;-63
2022/01/10 00:06:00;;;;;;;5.27;3.80;;;4.50;99.90;;;;;;5074396;28;20445;-62
2022/01/10 00:08:27;;;;;;;11.13;3.73;;;4.30;99.90;;;;;;5073922;28;20448;-62
2022/01/10 00:10:54;;;;;;;4.10;3.70;;;4.30;99.90;;;;;;5073771;28;20488;-62
2022/01/10 00:13:21;;;;;;;7.33;4.37;;;4.10;99.90;;;;;;5073985;28;20454;-62
2022/01/10 00:15:50;;;;;;;6.07;3.77;;;4.10;99.90;;;;;;5073566;28;20834;-62
2022/01/10 00:18:17;;;;;;;5.03;4.47;;;4.10;99.90;;;;;;5074069;28;20440;-62
2022/01/10 00:20:44;;;;;;;4.70;3.60;;;4.20;99.90;;;;;;5073608;28;20823;-61
2022/01/10 00:23:11;;;;;;;5.53;4.20;;;4.20;99.90;;;;;;5073650;28;20456;-61
2022/01/10 00:25:39;;;;;;;7.50;4.83;;;4.30;99.90;;;;;;5073488;28;20478;-61
2022/01/10 00:28:06;;;;;;;4.10;3.80;;;4.20;99.90;;;;;;5073692;28;20444;-61
2022/01/10 00:30:33;;;;;;;6.90;4.80;;;4.30;99.90;;;;;;5073159;28;20522;-61
2022/01/10 00:33:02;;;;;;;8.93;4.63;;;4.40;99.90;;;;;;5073338;28;20444;-61
2022/01/10 00:35:29;;;;;;;6.23;4.30;;;4.50;99.90;;;;;;5073667;28;20475;-61
2022/01/10 00:37:57;;;;;;;5.27;3.70;;;4.60;99.90;;;;;;5073252;28;21038;-61
2022/01/10 00:40:24;;;;;;;7.67;4.60;;;4.30;99.90;;;;;;5073371;28;20879;-61
2022/01/10 00:42:55;;;;;;;10.60;4.30;;;4.30;99.90;;;;;;5073220;28;20942;-61
2022/01/10 00:45:26;;;;;;;4.17;3.80;;;4.30;99.90;;;;;;5073261;28;20437;-62
2022/01/10 00:47:54;;;;;;;8.20;4.83;;;4.40;99.90;;;;;;5073511;28;20533;-62
2022/01/10 00:50:24;;;;;;;4.37;3.33;;;4.50;99.90;;;;;;5072867;28;20488;-63
2022/01/10 00:52:51;;;;;;;4.43;3.53;;;4.50;99.90;;;;;;5073174;28;20935;-62
2022/01/10 00:55:19;;;;;;;5.40;3.50;;;4.30;99.90;;;;;;5073038;28;20923;-62
2022/01/10 00:57:46;;;;;;;4.57;3.70;;;4.20;99.90;;;;;;5073262;28;20820;-62
2022/01/10 01:00:15;;;;;;;4.13;3.57;;;4.20;99.90;;;;;;5073283;28;20451;-62
2022/01/10 01:02:43;;;;;;;13.23;4.40;;;4.10;99.90;;;;;;5073080;28;21074;-62
2022/01/10 01:05:13;;;;;;;3.87;3.10;;;4.20;99.90;;;;;;5073242;28;20452;-62
2022/01/10 01:07:41;;;;;;;5.97;4.67;;;4.30;99.90;;;;;;5073206;28;20448;-62
2022/01/10 01:10:36;;;;;;;5.80;5.17;;;4.40;99.90;;;;;;5073233;28;20448;-62
2022/01/10 01:13:08;;;;;;;4.37;3.97;;;4.50;99.90;;;;;;5073372;28;20511;-62
2022/01/10 01:15:47;;;;;;;7.70;4.23;;;4.60;99.90;;;;;;5071845;28;20480;-62
2022/01/10 01:18:20;;;;;;;4.03;3.70;;;4.60;99.90;;;;;;5073237;28;20458;-62
2022/01/10 01:26:14;;;;;;;4.43;3.73;;;4.50;99.90;;;;;;5072912;28;20478;-62
2022/01/10 01:28:41;;;;;;;6.87;3.50;;;4.50;99.90;;;;;;5072734;28;20451;-63
2022/01/10 01:31:08;;;;;;;3.97;3.57;;;4.40;99.90;;;;;;5072970;28;20588;-63
2022/01/10 01:33:35;;;;;;;7.60;3.73;;;4.50;99.90;;;;;;5073077;28;20786;-62
2022/01/10 01:36:03;;;;;;;6.20;4.03;;;4.60;99.90;;;;;;5073011;28;20451;-62
2022/01/10 01:38:31;;;;;;;3.57;3.27;;;4.60;99.90;;;;;;5073116;28;20445;-62
2022/01/10 01:41:12;;;;;;;7.60;4.03;;;4.70;99.90;;;;;;5072837;28;20471;-63
2022/01/10 01:43:40;;;;;;;5.27;4.63;;;4.60;99.90;;;;;;5072636;28;20432;-62
2022/01/10 01:46:08;;;;;;;5.00;4.60;;;4.70;99.90;;;;;;5072516;28;20543;-62
2022/01/10 01:48:35;;;;;;;5.13;4.60;;;4.70;99.90;;;;;;5073147;28;20467;-62
2022/01/10 01:51:03;;;;;;;8.60;4.47;;;4.70;99.90;;;;;;5072646;28;20492;-62
2022/01/10 01:53:32;;;;;;;10.03;4.43;;;4.60;99.90;;;;;;5072449;28;20939;-62
2022/01/10 01:55:59;;;;;;;6.37;4.60;;;4.60;99.90;;;;;;5072608;28;20950;-62
2022/01/10 01:58:27;;;;;;;4.80;4.30;;;4.70;99.90;;;;;;5072411;28;20448;-62
2022/01/10 02:00:55;;;;;;;7.63;3.70;;;4.70;99.90;;;;;;5072302;28;20471;-62
2022/01/10 02:03:22;;;;;;;4.57;3.43;;;4.70;99.90;;;;;;5074273;28;20449;-62
2022/01/10 02:05:50;;;;;;;5.23;3.83;;;4.70;99.90;;;;;;5076023;28;20961;-62
2022/01/10 02:08:17;;;;;;;3.73;3.40;;;4.60;99.90;;;;;;5076307;28;20448;-62
2022/01/10 02:10:46;;;;;;;8.67;3.83;;;4.60;99.90;;;;;;5076028;28;20490;-62
2022/01/10 02:13:13;;;;;;;8.83;3.50;;;4.60;99.90;;;;;;5075932;28;20806;-62
2022/01/10 02:15:47;;;;;;;4.80;4.40;;;4.60;99.90;;;;;;5075834;28;20480;-62
2022/01/10 02:18:15;;;;;;;4.07;3.17;;;4.70;99.90;;;;;;5076396;28;20462;-62
2022/01/10 02:20:45;;;;;;;6.27;3.67;;;4.50;99.90;;;;;;5075922;28;20975;-62
2022/01/10 02:23:12;;;;;;;10.90;3.77;;;4.30;99.90;;;;;;5076049;28;20459;-62
2022/01/10 02:25:39;;;;;;;9.43;3.90;;;4.20;99.90;;;;;;5075669;28;20449;-62
2022/01/10 02:28:07;;;;;;;5.67;3.63;;;4.10;99.90;;;;;;5076054;28;20808;-62
2022/01/10 02:30:34;;;;;;;6.13;4.77;;;4.10;99.90;;;;;;5075417;28;20474;-62
2022/01/10 02:33:02;;;;;;;4.93;4.40;;;4.10;99.90;;;;;;5075539;28;20531;-62
2022/01/10 02:35:33;;;;;;;8.50;4.60;;;4.40;99.90;;;;;;5075573;28;20452;-62
2022/01/10 02:38:03;;;;;;;11.47;5.60;;;4.40;99.90;;;;;;5075484;28;20918;-62
2022/01/10 02:40:31;;;;;;;7.47;5.80;;;4.40;99.90;;;;;;5075301;28;20974;-62
2022/01/10 02:42:59;;;;;;;9.30;6.77;;;4.50;99.90;;;;;;5075309;28;20448;-62
2022/01/10 02:45:27;;;;;;;11.00;8.20;;;4.60;99.90;;;;;;5075671;28;20448;-62
2022/01/10 02:47:54;;;;;;;9.90;7.53;;;4.50;99.90;;;;;;5075678;28;20818;-62
2022/01/10 02:50:22;;;;;;;13.73;9.03;;;4.60;99.90;;;;;;5075472;28;20465;-62
2022/01/10 02:52:50;;;;;;;14.33;8.23;;;4.60;99.90;;;;;;5075515;28;20511;-62
2022/01/10 02:55:18;;;;;;;16.50;8.73;;;4.60;99.90;;;;;;5075468;28;20449;-62
2022/01/10 02:57:46;;;;;;;9.80;8.37;;;4.50;99.90;;;;;;5075068;28;20449;-62
2022/01/10 03:00:16;;;;;;;11.43;8.57;;;4.50;99.90;;;;;;5075158;28;20436;-62
2022/01/10 03:02:44;;;;;;;7.10;5.70;;;4.60;99.90;;;;;;5074973;28;20447;-62
2022/01/10 03:05:12;;;;;;;5.80;4.40;;;4.60;99.90;;;;;;5074906;28;20923;-62
2022/01/10 03:07:39;;;;;;;6.93;5.00;;;4.50;99.90;;;;;;5075326;28;20523;-62
2022/01/10 03:10:08;;;;;;;8.63;5.97;;;4.30;99.90;;;;;;5075145;28;20448;-62
2022/01/10 03:12:36;;;;;;;12.77;7.23;;;4.30;99.90;;;;;;5074987;28;20567;-62
2022/01/10 03:15:08;;;;;;;7.80;6.57;;;4.50;99.90;;;;;;5073255;28;20966;-63
2022/01/10 03:17:35;;;;;;;7.87;7.07;;;4.60;99.90;;;;;;5075274;28;20460;-62
2022/01/10 03:20:04;;;;;;;10.00;7.67;;;4.60;99.90;;;;;;5074681;28;21012;-62
2022/01/10 03:22:31;;;;;;;9.30;7.80;;;4.70;99.90;;;;;;5074614;28;20453;-62
2022/01/10 03:24:59;;;;;;;8.63;6.53;;;4.80;99.90;;;;;;5074662;28;20935;-62
2022/01/10 03:27:26;;;;;;;7.70;6.20;;;4.70;99.90;;;;;;5074763;28;20448;-62
2022/01/10 03:29:55;;;;;;;14.70;5.60;;;4.70;99.90;;;;;;5074446;28;20543;-62
2022/01/10 03:32:22;;;;;;;9.70;7.40;;;4.60;99.90;;;;;;5074390;28;20491;-62
2022/01/10 03:34:50;;;;;;;7.93;7.20;;;4.10;99.90;;;;;;5074647;28;20448;-62
2022/01/10 03:37:17;;;;;;;8.67;6.90;;;4.20;99.90;;;;;;5074632;28;20446;-62
2022/01/10 03:39:44;;;;;;;7.37;6.67;;;4.30;99.90;;;;;;5074411;28;20432;-62
2022/01/10 03:42:12;;;;;;;5.80;5.00;;;4.50;99.90;;;;;;5074716;28;20464;-62
2022/01/10 03:44:39;;;;;;;6.30;5.27;;;4.20;99.90;;;;;;5074354;28;20455;-62
2022/01/10 03:47:09;;;;;;;10.70;5.23;;;4.20;99.90;;;;;;5074532;28;20456;-62
2022/01/10 03:49:37;;;;;;;15.13;6.43;;;4.10;99.90;;;;;;5074535;28;20462;-63
2022/01/10 03:52:04;;;;;;;5.40;4.87;;;4.10;99.90;;;;;;5073820;28;20491;-63
2022/01/10 03:54:31;;;;;;;9.30;5.43;;;4.20;99.90;;;;;;5074229;28;20445;-62
2022/01/10 03:56:59;;;;;;;7.80;4.20;;;4.20;99.90;;;;;;5074391;28;20457;-62
2022/01/10 03:59:26;;;;;;;7.33;4.40;;;4.10;99.90;;;;;;5074155;28;20452;-62
2022/01/10 04:01:54;;;;;;;6.17;4.43;;;4.10;99.90;;;;;;5073796;28;20461;-62
2022/01/10 04:04:23;;;;;;;4.37;4.00;;;4.20;99.90;;;;;;5074204;28;20450;-62
2022/01/10 04:06:50;;;;;;;7.80;4.07;;;4.20;99.90;;;;;;5073733;28;20455;-62
2022/01/10 04:09:19;;;;;;;9.03;3.83;;;4.10;99.90;;;;;;5073926;28;20452;-62
2022/01/10 04:11:46;;;;;;;6.93;4.23;;;4.00;99.90;;;;;;5073637;28;20480;-62
2022/01/10 04:14:13;;;;;;;4.80;3.53;;;4.20;99.90;;;;;;5073520;28;20455;-62
2022/01/10 04:16:40;;;;;;;6.93;4.23;;;4.30;99.90;;;;;;5073546;28;20563;-62
2022/01/10 04:19:08;;;;;;;6.90;4.20;;;4.30;99.90;;;;;;5073966;28;20506;-62
2022/01/10 04:21:36;;;;;;;5.77;4.53;;;4.10;99.90;;;;;;5073756;28;20468;-62
2022/01/10 04:24:03;;;;;;;6.03;4.80;;;4.10;99.90;;;;;;5073729;28;20452;-62
2022/01/10 04:26:31;;;;;;;6.50;4.87;;;4.20;99.90;;;;;;5073523;28;20486;-62
2022/01/10 04:28:58;;;;;;;11.80;5.80;;;4.40;99.90;;;;;;5073600;28;20436;-62
2022/01/10 04:31:25;;;;;;;7.97;5.33;;;4.60;99.90;;;;;;5073537;28;20500;-62
2022/01/10 04:33:52;;;;;;;6.63;4.57;;;4.70;99.90;;;;;;5073707;28;20441;-62
2022/01/10 04:36:19;;;;;;;7.93;5.10;;;4.30;99.90;;;;;;5073743;28;20810;-62
2022/01/10 04:38:48;;;;;;;10.77;5.83;;;4.10;99.90;;;;;;5073622;28;20484;-62
2022/01/10 04:41:15;;;;;;;5.63;4.43;;;4.00;99.90;;;;;;5073207;28;20971;-61
2022/01/10 04:43:42;;;;;;;7.73;6.47;;;3.90;99.90;;;;;;5073369;28;20959;-62
2022/01/10 04:46:09;;;;;;;7.23;6.00;;;3.90;99.90;;;;;;5073376;28;20543;-62
2022/01/10 04:48:36;;;;;;;8.30;6.00;;;4.00;99.90;;;;;;5073762;28;20455;-62
2022/01/10 04:51:14;;;;;;;7.77;5.97;;;4.00;99.90;;;;;;5073492;28;20834;-62
2022/01/10 04:53:44;;;;;;;9.00;6.27;;;3.90;99.90;;;;;;5073329;28;20422;-62
2022/01/10 04:56:13;;;;;;;8.57;5.47;;;4.00;99.90;;;;;;5073306;28;20451;-62
2022/01/10 04:58:42;;;;;;;12.73;6.93;;;4.10;99.90;;;;;;5073491;28;20455;-62
2022/01/10 05:01:10;;;;;;;9.47;7.27;;;4.20;99.90;;;;;;5073513;28;20887;-62
2022/01/10 05:03:37;;;;;;;10.00;6.93;;;4.20;99.90;;;;;;5073039;28;20436;-62
2022/01/10 05:06:04;;;;;;;8.73;6.37;;;4.30;99.90;;;;;;5073234;28;20440;-62
2022/01/10 05:08:32;;;;;;;10.00;6.87;;;4.30;99.90;;;;;;5073320;28;20440;-62
2022/01/10 05:10:59;;;;;;;11.80;7.43;;;4.40;99.90;;;;;;5072995;28;20963;-62
2022/01/10 05:13:28;;;;;;;16.47;7.83;;;4.50;99.90;;;;;;5073218;28;20507;-62
2022/01/10 05:15:56;;;;;;;8.90;7.77;;;4.50;99.90;;;;;;5072866;28;20475;-62
2022/01/10 05:18:24;;;;;;;17.40;7.73;;;4.60;99.90;;;;;;5073257;28;20460;-62
2022/01/10 05:20:52;;;;;;;8.87;6.20;;;4.60;99.90;;;;;;5073169;28;20476;-63
2022/01/10 05:23:20;;;;;;;13.13;7.80;;;4.40;99.90;;;;;;5073231;28;20491;-62
2022/01/10 05:25:47;;;;;;;11.63;7.43;;;4.40;99.90;;;;;;5072797;28;20451;-62
2022/01/10 05:28:17;;;;;;;8.83;7.33;;;4.30;99.90;;;;;;5072748;28;20460;-62
2022/01/10 05:30:48;;;;;;;10.40;6.60;;;4.30;99.90;;;;;;5073008;28;20518;-62
2022/01/10 05:33:16;;;;;;;11.33;7.37;;;4.40;99.90;;;;;;5073002;28;20517;-62
2022/01/10 05:35:45;;;;;;;9.37;7.67;;;4.50;99.90;;;;;;5072885;28;20444;-62
2022/01/10 05:38:13;;;;;;;14.23;8.10;;;4.50;99.90;;;;;;5073909;28;20451;-62
2022/01/10 05:40:41;;;;;;;8.83;7.27;;;4.60;99.90;;;;;;5076817;28;20495;-62
2022/01/10 05:43:08;;;;;;;11.03;8.33;;;4.50;99.90;;;;;;5076816;28;20441;-62
2022/01/10 05:45:35;;;;;;;14.60;8.90;;;4.50;99.90;;;;;;5076509;28;20463;-62
2022/01/10 05:48:11;;;;;;;19.57;8.70;;;4.50;99.90;;;;;;5076856;28;20484;-62
2022/01/10 05:50:41;;;;;;;16.93;9.50;;;4.50;99.90;;;;;;5076618;28;20472;-62
2022/01/10 05:53:11;;;;;;;14.10;8.10;;;4.50;99.90;;;;;;5075976;28;20479;-62
2022/01/10 05:55:38;;;;;;;14.00;8.60;;;4.50;99.90;;;;;;5076532;28;20535;-62
2022/01/10 05:58:06;;;;;;;13.33;9.43;;;4.50;99.90;;;;;;5076396;28;20444;-62
2022/01/10 06:00:34;;;;;;;9.90;7.80;;;4.50;99.90;;;;;;5076307;28;20464;-62
2022/01/10 06:03:03;;;;;;;19.33;9.93;;;4.50;99.90;;;;;;5076342;28;20444;-62
2022/01/10 06:05:31;;;;;;;14.40;9.17;;;4.50;99.90;;;;;;5076185;28;20539;-62
2022/01/10 06:07:59;;;;;;;15.10;9.10;;;4.40;99.90;;;;;;5076389;28;20452;-62
2022/01/10 06:10:26;;;;;;;17.30;8.83;;;4.40;99.90;;;;;;5076069;28;20472;-62
2022/01/10 06:12:54;;;;;;;14.47;9.03;;;4.30;99.90;;;;;;5075667;28;20515;-62
2022/01/10 06:15:22;;;;;;;18.00;10.50;;;4.40;99.90;;;;;;5075840;28;20522;-62
2022/01/10 06:17:49;;;;;;;15.73;10.47;;;4.40;99.90;;;;;;5076106;28;20546;-62
2022/01/10 06:20:18;;;;;;;12.43;9.77;;;4.40;99.90;;;;;;5075730;28;20444;-62
2022/01/10 06:22:45;;;;;;;11.33;9.27;;;4.30;99.90;;;;;;5076044;28;20528;-62
2022/01/10 06:25:15;;;;;;;13.77;9.80;;;4.40;99.90;;;;;;5075547;28;20448;-61
2022/01/10 06:27:42;;;;;;;13.27;9.83;;;4.30;99.90;;;;;;5075467;28;20539;-61
2022/01/10 06:30:10;;;;;;;17.03;11.40;;;4.40;99.90;;;;;;5075828;28;20444;-63
2022/01/10 06:32:37;;;;;;;19.37;10.90;;;4.40;99.90;;;;;;5075577;28;20563;-61
2022/01/10 06:35:05;;;;;;;13.80;9.40;;;4.40;99.90;;;;;;5075823;28;20477;-61
2022/01/10 06:37:34;;;;;;;17.67;11.20;;;4.30;99.90;;;;;;5075259;28;20912;-62
2022/01/10 06:40:02;;;;;;;19.00;10.57;;;4.30;99.90;;;;;;5075490;28;20543;-62
2022/01/10 06:42:29;;;;;;;16.07;11.10;;;4.50;99.90;;;;;;5075148;28;20531;-62
2022/01/10 06:44:56;;;;;;;15.00;10.40;;;4.50;99.90;;;;;;5075648;28;20448;-62
2022/01/10 06:47:23;;;;;;;18.53;9.80;;;4.50;99.90;;;;;;5075168;28;20456;-62
2022/01/10 06:49:51;;;;;;;15.90;9.23;;;4.50;99.90;;;;;;5074819;28;21046;-62
2022/01/10 06:52:18;;;;;;;14.73;9.63;;;4.40;99.90;;;;;;5075046;28;20491;-62
2022/01/10 06:54:47;;;;;;;16.70;11.40;;;4.50;99.90;;;;;;5074861;28;20451;-62
2022/01/10 06:57:14;;;;;;;15.53;12.10;;;4.40;99.90;;;;;;5075199;28;20444;-62
2022/01/10 06:59:41;;;;;;;13.30;10.60;;;4.50;99.90;;;;;;5074943;28;20449;-62
2022/01/10 07:02:09;;;;;;;13.53;11.53;;;4.40;99.90;;;;;;5074904;28;20559;-62
2022/01/10 07:04:36;;;;;;;19.33;11.80;;;4.40;99.90;;;;;;5075031;28;21023;-62
2022/01/10 07:07:05;;;;;;;18.00;11.00;;;4.30;99.90;;;;;;5074712;28;20936;-62
2022/01/10 07:09:33;;;;;;;20.60;11.97;;;4.30;99.90;;;;;;5075188;28;20449;-62
2022/01/10 07:12:02;;;;;;;15.43;11.00;;;4.20;99.90;;;;;;5074340;28;20555;-62
2022/01/10 07:14:32;;;;;;;21.57;11.90;;;3.90;99.90;;;;;;5074708;28;20491;-62
2022/01/10 07:16:59;;;;;;;16.60;11.50;;;3.90;99.90;;;;;;5075061;28;20491;-62
2022/01/10 07:19:26;;;;;;;17.47;12.57;;;3.90;99.90;;;;;;5074801;28;20436;-62
2022/01/10 07:21:54;;;;;;;20.27;12.07;;;4.10;99.90;;;;;;5074230;28;20464;-62
2022/01/10 07:24:21;;;;;;;15.60;12.10;;;4.10;99.90;;;;;;5074840;28;20445;-62
2022/01/10 07:26:49;;;;;;;20.00;12.37;;;4.00;99.90;;;;;;5074943;28;20448;-62
2022/01/10 07:29:17;;;;;;;22.83;12.70;;;3.90;99.90;;;;;;5074413;28;20539;-63
2022/01/10 07:31:45;;;;;;;19.10;11.77;;;4.00;99.90;;;;;;5074346;28;20494;-62
2022/01/10 07:34:14;;;;;;;15.33;11.43;;;4.10;99.90;;;;;;5074454;28;20567;-62
2022/01/10 07:36:42;;;;;;;19.43;12.70;;;4.10;99.90;;;;;;5074067;28;20454;-62
2022/01/10 07:39:10;;;;;;;22.90;13.93;;;4.40;99.90;;;;;;5074490;28;20441;-63
2022/01/10 07:41:37;;;;;;;14.03;10.70;;;4.30;99.90;;;;;;5074085;28;20841;-62
2022/01/10 07:44:05;;;;;;;18.93;11.80;;;4.30;99.90;;;;;;5073921;28;20476;-62
2022/01/10 07:46:34;;;;;;;16.50;12.40;;;4.20;99.90;;;;;;5074056;28;20531;-62
2022/01/10 07:49:01;;;;;;;18.83;11.53;;;4.40;99.90;;;;;;5073942;28;20436;-61
2022/01/10 07:51:28;;;;;;;21.20;12.37;;;4.40;99.90;;;;;;5073585;28;20986;-62
2022/01/10 07:53:56;;;;;;;17.53;10.70;;;4.30;99.90;;;;;;5074010;28;20480;-62
2022/01/10 07:56:23;;;;;;;14.00;10.60;;;4.30;99.90;;;;;;5074414;28;20444;-62
2022/01/10 07:58:52;;;;;;;14.00;10.57;;;4.30;99.90;;;;;;5074046;28;20536;-63
2022/01/10 08:01:19;;;;;;;18.93;11.10;;;4.40;99.90;;;;;;5072859;28;20468;-62
2022/01/10 08:03:49;;;;;;;16.40;12.03;;;4.40;99.90;;;;;;5074178;28;20448;-63
2022/01/10 08:06:16;;;;;;;16.53;10.43;;;4.30;99.90;;;;;;5073740;28;20539;-62
2022/01/10 08:08:43;;;;;;;14.20;11.30;;;4.30;99.90;;;;;;5073588;28;20888;-62
2022/01/10 08:11:11;;;;;;;20.43;11.33;;;4.20;99.90;;;;;;5073727;28;20487;-62
2022/01/10 08:13:38;;;;;;;18.67;12.30;;;4.20;99.90;;;;;;5073796;28;20562;-62
2022/01/10 08:16:06;;;;;;;19.63;13.30;;;4.10;99.90;;;;;;5073314;28;20480;-62
2022/01/10 08:18:34;;;;;;;20.60;12.17;;;4.10;99.90;;;;;;5073806;28;20458;-62
2022/01/10 08:21:03;;;;;;;18.90;11.87;;;4.20;99.90;;;;;;5073497;28;20464;-62
2022/01/10 08:23:31;;;;;;;16.17;11.87;;;4.00;99.90;;;;;;5073513;28;20440;-62
2022/01/10 08:25:58;;;;;;;19.60;11.07;;;4.00;99.90;;;;;;5073271;28;20452;-62
2022/01/10 08:28:25;;;;;;;23.10;11.97;;;4.10;99.90;;;;;;5073318;28;20984;-62
2022/01/10 08:30:53;;;;;;;14.37;11.60;;;4.10;99.90;;;;;;5072888;28;20559;-62
2022/01/10 08:33:20;;;;;;;16.50;12.50;;;4.10;99.90;;;;;;5073414;28;20480;-62
2022/01/10 08:35:48;;;;;;;18.23;14.30;;;4.00;99.90;;;;;;5073698;28;20847;-62
2022/01/10 08:38:17;;;;;;;22.40;11.77;;;4.10;99.90;;;;;;5073235;28;20478;-62
2022/01/10 08:40:44;;;;;;;17.10;12.20;;;4.00;99.90;;;;;;5073379;28;20500;-62
2022/01/10 08:43:11;;;;;;;21.10;13.70;;;4.10;99.90;;;;;;5073224;28;20441;-62
2022/01/10 08:45:39;;;;;;;18.17;13.13;;;4.40;99.90;;;;;;5073807;28;20448;-62
2022/01/10 08:48:06;;;;;;;17.70;13.07;;;4.50;99.90;;;;;;5073052;28;20494;-62
2022/01/10 08:50:34;;;;;;;19.10;12.50;;;4.40;99.90;;;;;;5073131;28;20526;-62
2022/01/10 08:53:02;;;;;;;20.60;12.80;;;4.10;99.90;;;;;;5072997;28;20830;-62
2022/01/10 08:55:31;;;;;;;21.13;12.17;;;4.00;99.90;;;;;;5072810;28;20813;-62
2022/01/10 08:57:59;;;;;;;18.17;13.20;;;4.00;99.90;;;;;;5073481;28;20452;-63
2022/01/10 09:00:27;;;;;;;29.20;14.30;;;4.00;99.90;;;;;;5072967;28;20971;-62
2022/01/10 09:02:54;;;;;;;20.07;13.03;;;4.00;99.90;;;;;;5072954;28;20441;-62
2022/01/10 09:05:21;;;;;;;23.40;12.97;;;4.10;99.90;;;;;;5072983;28;20456;-62
2022/01/10 09:07:50;;;;;;;23.80;13.83;;;4.30;99.90;;;;;;5073436;28;20449;-62
2022/01/10 09:10:19;;;;;;;18.77;12.83;;;4.40;99.90;;;;;;5072652;28;20448;-62
2022/01/10 09:12:47;;;;;;;29.40;16.53;;;4.40;99.90;;;;;;5074933;28;20548;-62
2022/01/10 09:15:15;;;;;;;20.93;12.57;;;4.00;99.90;;;;;;5076842;28;20915;-63
2022/01/10 09:17:43;;;;;;;23.53;13.20;;;4.20;99.90;;;;;;5076542;28;20965;-63
2022/01/10 09:20:10;;;;;;;18.70;13.00;;;4.40;99.90;;;;;;5076936;28;20495;-62
2022/01/10 09:22:38;;;;;;;20.27;12.70;;;4.50;99.90;;;;;;5077196;28;20452;-62
2022/01/10 09:25:06;;;;;;;20.10;13.60;;;4.40;99.90;;;;;;5076813;28;20837;-63
2022/01/10 09:27:34;;;;;;;27.53;13.10;;;4.60;99.90;;;;;;5076965;28;20452;-62
2022/01/10 09:30:03;;;;;;;17.83;12.20;;;4.40;99.90;;;;;;5076654;28;20993;-63
2022/01/10 09:32:30;;;;;;;21.50;12.23;;;4.30;99.90;;;;;;5077024;28;20547;-63
2022/01/10 09:34:57;;;;;;;27.13;11.50;;;4.30;99.90;;;;;;5076725;28;20537;-63
2022/01/10 09:37:25;;;;;;;18.27;12.00;;;4.30;99.90;;;;;;5076662;28;20542;-62
2022/01/10 09:39:52;;;;;;;20.17;12.50;;;4.60;99.90;;;;;;5076578;28;20538;-63
2022/01/10 09:42:20;;;;;;;19.57;12.07;;;4.80;99.90;;;;;;5076072;28;20546;-63
2022/01/10 09:44:47;;;;;;;23.30;13.90;;;5.00;99.90;;;;;;5076339;28;20444;-62
2022/01/10 09:47:16;;;;;;;17.97;11.57;;;5.00;99.90;;;;;;5076462;28;20581;-62
2022/01/10 09:49:43;;;;;;;25.40;13.07;;;5.00;99.90;;;;;;5076303;28;20479;-62
2022/01/10 09:52:10;;;;;;;20.13;12.10;;;4.90;99.90;;;;;;5076088;28;20998;-63
2022/01/10 09:54:37;;;;;;;22.53;13.17;;;5.10;99.90;;;;;;5076305;28;20534;-62
2022/01/10 09:57:05;;;;;;;14.57;11.10;;;5.20;99.90;;;;;;5076397;28;20536;-63
2022/01/10 09:59:33;;;;;;;24.53;12.33;;;5.20;99.90;;;;;;5076443;28;20452;-63
2022/01/10 10:02:00;;;;;;;22.37;11.90;;;5.10;99.90;;;;;;5076433;28;20472;-63
2022/01/10 10:04:28;;;;;;;17.80;13.67;;;5.10;99.90;;;;;;5075960;28;20429;-63
2022/01/10 10:06:56;;;;;;;19.90;13.30;;;5.30;99.90;;;;;;5075930;28;20539;-62
2022/01/10 10:09:23;;;;;;;22.33;13.33;;;5.50;99.90;;;;;;5075852;28;20440;-62
2022/01/10 10:11:52;;;;;;;22.60;15.17;;;5.50;99.90;;;;;;5075936;28;20468;-62
2022/01/10 10:14:22;;;;;;;16.10;12.30;;;5.70;99.90;;;;;;5075606;28;20484;-62
2022/01/10 10:16:53;;;;;;;13.93;10.87;;;5.60;99.90;;;;;;5075482;28;20566;-63
2022/01/10 10:19:22;;;;;;;15.30;11.63;;;5.60;99.90;;;;;;5076039;28;20452;-63
2022/01/10 10:21:52;;;;;;;14.23;10.30;;;5.80;99.90;;;;;;5075849;28;20475;-62
2022/01/10 10:24:20;;;;;;;21.17;11.50;;;5.80;99.90;;;;;;5074771;28;20425;-62
2022/01/10 10:26:47;;;;;;;12.67;10.43;;;5.80;99.90;;;;;;5075697;28;20479;-62
2022/01/10 10:29:17;;;;;;;17.93;11.47;;;5.80;99.90;;;;;;5076186;28;20470;-62
2022/01/10 10:31:46;;;;;;;15.30;11.57;;;5.80;99.90;;;;;;5075505;28;20489;-62
2022/01/10 10:34:19;;;;;;;36.23;15.93;;;5.70;99.90;;;;;;5075153;28;20567;-62
2022/01/10 10:36:59;;;;;;;21.83;12.47;;;5.70;99.90;;;;;;5075492;28;20468;-62
2022/01/10 10:39:29;;;;;;;19.33;14.70;;;5.70;99.90;;;;;;5075682;28;20435;-62
2022/01/10 10:41:59;;;;;;;17.07;11.20;;;5.60;99.90;;;;;;5075328;28;20545;-63
2022/01/10 10:44:27;;;;;;;18.13;12.07;;;5.60;99.90;;;;;;5075262;28;20444;-63
2022/01/10 10:46:54;;;;;;;15.87;13.40;;;5.70;99.90;;;;;;5075521;28;20453;-63
2022/01/10 10:49:25;;;;;;;19.00;12.07;;;5.60;99.90;;;;;;5075463;28;20435;-62
2022/01/10 10:51:53;;;;;;;16.07;11.77;;;5.50;99.90;;;;;;5075358;28;20551;-62
2022/01/10 10:54:24;;;;;;;16.17;10.87;;;5.40;99.90;;;;;;5075199;28;20586;-62
2022/01/10 10:56:52;;;;;;;18.10;12.77;;;5.60;99.90;;;;;;5075569;28;20475;-62
2022/01/10 10:59:19;;;;;;;22.30;11.53;;;5.60;99.90;;;;;;5075364;28;20445;-62
2022/01/10 11:01:46;;;;;;;21.53;14.10;;;5.60;99.90;;;;;;5075183;28;20478;-62
2022/01/10 11:04:14;;;;;;;20.47;13.40;;;5.70;99.90;;;;;;5075295;28;20527;-63
2022/01/10 11:06:43;;;;;;;17.03;13.40;;;;;;;;;;5074736;28;20448;-63
2022/01/10 11:09:13;;;;;;;18.07;12.40;;;5.90;99.90;;;;;;5074743;28;20543;-63
2022/01/10 11:11:40;;;;;;;13.93;12.33;;;6.00;99.90;;;;;;5075104;28;20472;-62
2022/01/10 11:14:11;;;;;;;21.27;13.43;;;5.80;99.90;;;;;;5074389;28;20490;-62
2022/01/10 11:16:41;;;;;;;14.80;12.20;;;6.00;99.90;;;;;;5074352;28;20591;-63
2022/01/10 11:19:13;;;;;;;21.70;13.03;;;5.90;99.90;;;;;;5074670;28;20482;-63
2022/01/10 11:21:41;;;;;;;15.80;12.10;;;5.90;99.90;;;;;;5074988;28;20867;-63
2022/01/10 11:24:08;;;;;;;18.33;10.87;;;5.90;99.90;;;;;;5074758;28;20445;-62
2022/01/10 11:26:39;;;;;;;13.90;9.83;;;;;;;;;;5074378;28;21013;-61
2022/01/10 11:29:09;;;;;;;21.50;10.43;;;6.00;99.90;;;;;;5074926;28;20440;-63
2022/01/10 11:31:40;;;;;;;16.80;10.13;;;5.80;99.90;;;;;;5074686;28;20469;-62
2022/01/10 11:34:08;;;;;;;14.70;10.53;;;5.80;99.90;;;;;;5074309;28;20604;-62
2022/01/10 11:36:35;;;;;;;12.20;10.67;;;6.00;99.90;;;;;;5073126;28;20444;-62
2022/01/10 11:39:10;;;;;;;12.50;9.37;;;6.00;99.90;;;;;;5074295;28;20539;-63
2022/01/10 11:41:37;;;;;;;12.13;10.33;;;5.80;99.90;;;;;;5074163;28;20482;-62
2022/01/10 11:44:08;;;;;;;15.63;9.80;;;5.90;99.90;;;;;;5074322;28;20449;-62
2022/01/10 11:46:39;;;;;;;14.87;10.50;;;6.10;99.90;;;;;;5073947;28;20460;-61
2022/01/10 11:49:18;;;;;;;12.50;9.70;;;6.70;99.90;;;;;;5074194;28;20512;-62
2022/01/10 11:51:59;;;;;;;15.93;10.13;;;6.70;99.90;;;;;;5074194;28;20472;-62
2022/01/10 11:54:29;;;;;;;18.93;10.20;;;6.50;99.90;;;;;;5074005;28;20472;-62
2022/01/10 11:56:58;;;;;;;11.57;8.87;;;6.50;99.90;;;;;;5073985;28;20433;-63
2022/01/10 11:59:28;;;;;;;14.20;10.87;;;6.60;99.90;;;;;;5073688;28;20440;-63
2022/01/10 12:02:02;;;;;;;14.23;10.50;;;6.70;99.90;;;;;;5073864;28;20466;-62
2022/01/10 12:04:31;;;;;;;12.10;10.00;;;6.70;99.90;;;;;;5073616;28;20443;-62
2022/01/10 12:06:59;;;;;;;19.43;11.87;;;6.70;99.90;;;;;;5073770;28;20452;-62
2022/01/10 12:09:26;;;;;;;16.60;10.27;;;6.60;99.90;;;;;;5073897;28;20483;-62
2022/01/10 12:11:56;;;;;;;17.23;11.07;;;6.50;99.90;;;;;;5073528;28;21022;-62
2022/01/10 12:14:24;;;;;;;13.27;10.83;;;6.50;99.90;;;;;;5073493;28;20483;-62
2022/01/10 12:16:52;;;;;;;18.57;12.40;;;6.30;99.90;;;;;;5073138;28;21916;-62
2022/01/10 12:19:21;;;;;;;15.30;11.50;;;6.40;99.90;;;;;;5073600;28;20447;-62
2022/01/10 12:21:49;;;;;;;14.20;11.37;;;6.40;99.90;;;;;;5072964;28;20468;-62
2022/01/10 12:24:17;;;;;;;14.07;11.53;;;6.30;99.90;;;;;;5073066;28;20789;-62
2022/01/10 12:26:44;;;;;;;19.10;10.60;;;6.10;99.90;;;;;;5073240;28;20539;-62
2022/01/10 12:29:14;;;;;;;15.40;11.20;;;6.30;99.90;;;;;;5073080;28;20452;-62
2022/01/10 12:31:44;;;;;;;20.27;13.10;;;6.40;99.90;;;;;;5073313;28;20555;-62
2022/01/10 12:34:15;;;;;;;11.43;10.30;;;6.50;99.90;;;;;;5073008;28;21096;-62
2022/01/10 12:36:46;;;;;;;14.07;11.37;;;6.50;99.90;;;;;;5073003;28;20934;-62
2022/01/10 12:39:18;;;;;;;18.07;11.70;;;6.50;99.90;;;;;;5073391;28;20435;-62
2022/01/10 12:41:46;;;;;;;18.23;11.03;;;;;;;;;;5072962;28;20514;-62
2022/01/10 12:44:13;;;;;;;19.20;10.83;;;6.30;99.90;;;;;;5072843;28;20436;-62
2022/01/10 12:46:40;;;;;;;18.60;13.10;;;6.30;99.90;;;;;;5072445;28;20862;-62
2022/01/10 12:49:09;;;;;;;18.20;12.83;;;6.10;99.90;;;;;;5073315;28;20799;-63
2022/01/10 12:51:38;;;;;;;22.27;12.37;;;6.20;99.90;;;;;;5073058;28;20475;-62
2022/01/10 12:54:14;;;;;;;15.53;12.37;;;6.20;99.90;;;;;;5072880;28;20502;-62
2022/01/10 12:56:41;;;;;;;18.40;12.60;;;6.10;99.90;;;;;;5072824;28;20895;-63